createdAt,value
2018-10-19T00:01:43.228Z,42.70
2018-10-19T00:04:11.315Z,42.37
2018-10-19T00:06:39.399Z,43.80
2018-10-19T00:09:08.354Z,43.13
2018-10-19T00:11:36.527Z,43.43
2018-10-19T00:14:05.023Z,44.83
2018-10-19T00:16:33.115Z,46.90
2018-10-19T00:19:01.198Z,46.50
2018-10-19T00:21:29.278Z,45.63
2018-10-19T00:23:57.368Z,46.73
2018-10-19T00:26:25.562Z,47.30
2018-10-19T00:28:53.690Z,46.47
2018-10-19T00:31:21.778Z,47.40
2018-10-19T00:33:49.862Z,47.27
2018-10-19T00:36:17.943Z,47.17
2018-10-19T00:38:46.046Z,49.83
2018-10-19T00:41:14.255Z,49.50
2018-10-19T00:43:42.237Z,49.60
2018-10-19T00:46:10.334Z,49.77
2018-10-19T00:48:38.434Z,48.70
2018-10-19T00:51:06.595Z,50.33
2018-10-19T00:53:34.627Z,50.43
2018-10-19T00:56:02.704Z,49.70
2018-10-19T00:58:30.804Z,50.07
2018-10-19T01:00:58.874Z,49.87
2018-10-19T01:03:26.971Z,49.90
2018-10-19T01:05:55.050Z,51.20
2018-10-19T01:08:23.132Z,51.80
2018-10-19T01:10:51.202Z,50.67
2018-10-19T01:13:19.283Z,52.00
2018-10-19T01:15:47.351Z,50.03
2018-10-19T01:18:15.421Z,52.07
2018-10-19T01:20:43.498Z,51.90
2018-10-19T01:23:11.674Z,52.07
2018-10-19T01:25:41.155Z,55.03
2018-10-19T01:28:09.931Z,52.63
2018-10-19T01:30:38.022Z,54.53
2018-10-19T01:33:06.136Z,54.40
2018-10-19T01:35:34.174Z,54.17
2018-10-19T01:38:02.252Z,54.20
2018-10-19T01:40:30.322Z,54.27
2018-10-19T01:42:58.390Z,55.07
2018-10-19T01:45:28.589Z,55.83
2018-10-19T01:47:56.998Z,56.00
2018-10-19T01:50:25.103Z,55.77
2018-10-19T01:52:53.213Z,57.30
2018-10-19T01:55:21.311Z,56.57
2018-10-19T01:57:49.379Z,55.33
2018-10-19T02:00:17.467Z,57.77
2018-10-19T02:02:45.551Z,57.10
2018-10-19T02:05:13.648Z,57.80
2018-10-19T02:07:41.686Z,59.03
2018-10-19T02:10:09.759Z,56.90
2018-10-19T02:12:37.835Z,59.20
2018-10-19T02:15:06.989Z,57.40
2018-10-19T02:17:35.023Z,59.60
2018-10-19T02:20:03.087Z,59.03
2018-10-19T02:22:31.174Z,59.50
2018-10-19T02:24:59.311Z,59.53
2018-10-19T02:27:27.395Z,62.23
2018-10-19T02:29:55.476Z,60.73
2018-10-19T02:32:23.554Z,60.83
2018-10-19T02:34:51.634Z,61.23
2018-10-19T02:37:19.737Z,61.73
2018-10-19T02:39:47.843Z,64.57
2018-10-19T02:42:15.927Z,62.60
2018-10-19T02:44:44.010Z,63.97
2018-10-19T02:47:12.127Z,63.33
2018-10-19T02:49:40.197Z,64.57
2018-10-19T02:52:08.283Z,63.20
2018-10-19T02:54:36.367Z,63.57
2018-10-19T02:57:04.512Z,63.03
2018-10-19T02:59:32.556Z,63.80
2018-10-19T03:02:00.656Z,61.97
2018-10-19T03:04:28.770Z,64.13
2018-10-19T03:06:56.875Z,64.00
2018-10-19T03:09:24.943Z,65.27
2018-10-19T03:11:53.036Z,63.07
2018-10-19T03:14:21.131Z,63.70
2018-10-19T03:16:49.215Z,64.13
2018-10-19T03:19:17.285Z,63.33
2018-10-19T03:21:45.388Z,66.10
2018-10-19T03:24:13.462Z,64.47
2018-10-19T03:26:41.530Z,65.87
2018-10-19T03:29:09.674Z,63.23
2018-10-19T03:31:37.729Z,65.07
2018-10-19T03:34:05.974Z,64.63
2018-10-19T03:36:34.067Z,65.67
2018-10-19T03:39:02.402Z,67.50
2018-10-19T03:41:30.472Z,67.53
2018-10-19T03:43:58.598Z,62.57
2018-10-19T03:46:26.673Z,63.40
2018-10-19T03:48:54.774Z,65.53
2018-10-19T03:51:22.856Z,64.47
2018-10-19T03:53:50.992Z,63.33
2018-10-19T03:56:19.071Z,61.47
2018-10-19T03:58:47.166Z,62.37
2018-10-19T04:01:15.251Z,61.80
2018-10-19T04:03:43.410Z,59.23
2018-10-19T04:06:11.423Z,60.83
2018-10-19T04:08:39.510Z,62.13
2018-10-19T04:11:07.795Z,60.27
2018-10-19T04:13:35.895Z,59.13
2018-10-19T04:16:03.954Z,62.20
2018-10-19T04:18:32.039Z,61.03
2018-10-19T04:21:00.134Z,64.60
2018-10-19T04:23:28.174Z,63.77
2018-10-19T04:25:56.252Z,64.10
2018-10-19T04:28:24.359Z,62.47
2018-10-19T04:30:52.451Z,62.93
2018-10-19T04:33:20.574Z,62.63
2018-10-19T04:35:48.661Z,65.60
2018-10-19T04:38:16.739Z,66.20
2018-10-19T04:40:44.816Z,63.37
2018-10-19T04:43:12.897Z,64.70
2018-10-19T04:45:40.972Z,61.90
2018-10-19T04:48:09.058Z,60.67
2018-10-19T04:50:37.134Z,59.73
2018-10-19T04:53:05.271Z,60.10
2018-10-19T04:55:33.359Z,61.40
2018-10-19T04:58:01.444Z,60.60
2018-10-19T05:00:29.523Z,61.27
2018-10-19T05:02:57.643Z,65.13
2018-10-19T05:05:25.839Z,75.97
2018-10-19T05:07:53.836Z,81.43
2018-10-19T05:10:21.867Z,66.60
2018-10-19T05:12:49.943Z,63.13
2018-10-19T05:15:18.002Z,66.27
2018-10-19T05:17:46.090Z,66.80
2018-10-19T05:20:14.244Z,67.10
2018-10-19T05:22:42.267Z,66.77
2018-10-19T05:25:11.582Z,59.60
2018-10-19T05:27:39.655Z,58.80
2018-10-19T05:30:09.569Z,60.30
2018-10-19T05:32:37.736Z,65.33
2018-10-19T05:35:06.730Z,59.13
2018-10-19T05:37:34.923Z,53.77
2018-10-19T05:40:03.000Z,52.50
2018-10-19T05:42:31.259Z,51.87
2018-10-19T05:44:59.327Z,52.37
2018-10-19T05:47:27.399Z,49.70
2018-10-19T05:49:55.536Z,48.07
2018-10-19T05:52:23.616Z,45.07
2018-10-19T05:54:51.782Z,42.83
2018-10-19T05:57:19.862Z,45.13
2018-10-19T05:59:48.031Z,48.30
2018-10-19T06:02:16.192Z,48.80
2018-10-19T06:04:44.155Z,48.53
2018-10-19T06:07:12.227Z,48.47
2018-10-19T06:09:40.299Z,49.50
2018-10-19T06:12:08.379Z,52.80
2018-10-19T06:14:36.461Z,52.50
2018-10-19T06:17:04.969Z,53.37
2018-10-19T06:19:33.003Z,54.40
2018-10-19T06:22:01.067Z,54.73
2018-10-19T06:24:29.141Z,53.80
2018-10-19T06:26:57.218Z,50.90
2018-10-19T06:29:25.295Z,52.17
2018-10-19T06:31:53.383Z,52.67
2018-10-19T06:34:21.427Z,52.47
2018-10-19T06:36:49.491Z,50.87
2018-10-19T06:39:17.550Z,52.40
2018-10-19T06:41:45.632Z,49.93
2018-10-19T06:44:13.770Z,49.43
2018-10-19T06:46:41.824Z,51.07
2018-10-19T06:49:09.883Z,49.20
2018-10-19T06:51:37.900Z,46.30
2018-10-19T06:54:05.986Z,44.67
2018-10-19T06:56:34.079Z,44.23
2018-10-19T06:59:02.231Z,41.87
2018-10-19T07:01:30.222Z,42.23
2018-10-19T07:03:58.294Z,42.80
2018-10-19T07:06:26.366Z,41.30
2018-10-19T07:08:54.438Z,42.17
2018-10-19T07:11:22.634Z,43.30
2018-10-19T07:13:50.711Z,43.93
2018-10-19T07:16:18.791Z,43.00
2018-10-19T07:18:46.888Z,44.23
2018-10-19T07:21:14.934Z,43.07
2018-10-19T07:23:43.010Z,47.17
2018-10-19T07:26:11.142Z,49.13
2018-10-19T07:28:39.163Z,50.80
2018-10-19T07:31:07.234Z,53.10
2018-10-19T07:33:35.315Z,49.57
2018-10-19T07:36:03.402Z,47.53
2018-10-19T07:38:31.487Z,48.47
2018-10-19T07:40:59.574Z,48.37
2018-10-19T07:43:27.643Z,51.07
2018-10-19T07:45:55.701Z,52.03
2018-10-19T07:48:23.836Z,56.33
2018-10-19T07:50:51.873Z,57.33
2018-10-19T07:53:19.955Z,59.03
2018-10-19T07:55:48.027Z,57.30
2018-10-19T07:58:16.094Z,57.13
2018-10-19T08:00:44.161Z,58.83
2018-10-19T08:03:12.238Z,58.00
2018-10-19T08:05:40.303Z,58.80
2018-10-19T08:08:08.559Z,60.57
2018-10-19T08:10:36.606Z,59.37
2018-10-19T08:13:04.930Z,59.97
2018-10-19T08:15:33.019Z,60.67
2018-10-19T08:18:01.099Z,64.03
2018-10-19T08:20:29.170Z,61.27
2018-10-19T08:22:57.293Z,58.47
2018-10-19T08:25:25.323Z,58.03
2018-10-19T08:27:53.413Z,59.50
2018-10-19T08:30:21.482Z,59.13
2018-10-19T08:32:49.615Z,55.83
2018-10-19T08:35:17.675Z,59.30
2018-10-19T08:37:45.751Z,58.03
2018-10-19T08:40:13.831Z,56.33
2018-10-19T08:42:41.899Z,53.67
2018-10-19T08:45:09.980Z,56.10
2018-10-19T08:47:38.068Z,59.13
2018-10-19T08:50:06.602Z,60.77
2018-10-19T08:52:34.719Z,61.37
2018-10-19T08:55:02.818Z,59.97
2018-10-19T08:57:30.858Z,60.80
2018-10-19T08:59:58.967Z,60.80
2018-10-19T09:02:27.006Z,57.97
2018-10-19T09:04:55.081Z,56.47
2018-10-19T09:07:23.152Z,59.17
2018-10-19T09:09:51.214Z,59.57
2018-10-19T09:12:19.300Z,57.40
2018-10-19T09:14:50.667Z,57.07
2018-10-19T09:17:18.787Z,55.90
2018-10-19T09:19:47.526Z,57.43
2018-10-19T09:22:15.602Z,76.23
2018-10-19T09:24:43.672Z,58.57
2018-10-19T09:27:11.813Z,58.53
2018-10-19T09:29:39.967Z,57.13
2018-10-19T09:32:07.882Z,57.77
2018-10-19T09:34:36.575Z,57.77
2018-10-19T09:37:05.465Z,57.63
2018-10-19T09:39:33.479Z,59.43
2018-10-19T09:42:01.604Z,55.13
2018-10-19T09:44:29.638Z,59.40
2018-10-19T09:46:57.718Z,55.33
2018-10-19T09:49:25.787Z,58.67
2018-10-19T09:51:53.853Z,57.27
2018-10-19T09:54:21.924Z,57.97
2018-10-19T09:56:49.995Z,60.07
2018-10-19T09:59:18.158Z,57.77
2018-10-19T10:01:46.138Z,58.83
2018-10-19T10:04:14.215Z,56.97
2018-10-19T10:06:42.279Z,57.27
2018-10-19T10:09:12.367Z,56.00
2018-10-19T10:11:40.619Z,57.17
2018-10-19T10:14:08.895Z,56.83
2018-10-19T10:16:37.179Z,56.13
2018-10-19T10:19:05.503Z,56.20
2018-10-19T10:21:33.566Z,54.23
2018-10-19T10:24:01.646Z,55.57
2018-10-19T10:26:29.866Z,54.00
2018-10-19T10:28:57.942Z,55.03
2018-10-19T10:31:26.020Z,55.87
2018-10-19T10:33:54.152Z,54.40
2018-10-19T10:36:22.158Z,54.57
2018-10-19T10:38:50.248Z,57.17
2018-10-19T10:41:18.304Z,56.83
2018-10-19T10:43:46.403Z,54.67
2018-10-19T10:46:14.578Z,57.17
2018-10-19T10:48:42.534Z,56.40
2018-10-19T10:51:10.632Z,54.93
2018-10-19T10:53:38.699Z,54.77
2018-10-19T10:56:06.794Z,51.67
2018-10-19T10:58:34.854Z,51.07
2018-10-19T11:01:02.937Z,51.10
2018-10-19T11:03:31.004Z,48.87
2018-10-19T11:05:59.081Z,48.90
2018-10-19T11:08:27.161Z,49.83
2018-10-19T11:11:14.229Z,49.57
2018-10-19T11:13:43.003Z,49.37
2018-10-19T11:16:12.173Z,49.97
2018-10-19T11:18:40.480Z,48.07
2018-10-19T11:21:08.752Z,48.43
2018-10-19T11:23:36.840Z,50.67
2018-10-19T11:26:05.414Z,50.43
2018-10-19T11:28:33.486Z,51.20
2018-10-19T11:31:02.094Z,48.40
2018-10-19T11:33:30.130Z,47.97
2018-10-19T11:35:58.204Z,47.20
2018-10-19T11:38:26.274Z,46.77
2018-10-19T11:40:54.352Z,48.70
2018-10-19T11:43:22.423Z,48.33
2018-10-19T11:45:50.495Z,50.47
2018-10-19T11:48:18.566Z,47.57
2018-10-19T11:50:46.642Z,48.50
2018-10-19T11:53:14.714Z,48.70
2018-10-19T11:55:42.791Z,48.38
2018-10-19T11:58:10.906Z,45.33
2018-10-19T12:00:38.939Z,47.00
2018-10-19T12:03:07.007Z,47.57
2018-10-19T12:05:35.086Z,48.48
2018-10-19T12:08:03.155Z,47.08
2018-10-19T12:10:31.246Z,47.23
2018-10-19T12:12:59.363Z,45.12
2018-10-19T12:15:27.379Z,44.67
2018-10-19T12:17:55.450Z,44.30
2018-10-19T12:20:23.510Z,45.40
2018-10-19T12:22:51.583Z,44.85
2018-10-19T12:25:19.655Z,43.85
2018-10-19T12:27:47.719Z,43.63
2018-10-19T12:30:15.791Z,45.10
2018-10-19T12:32:43.865Z,44.27
2018-10-19T12:35:13.466Z,44.20
2018-10-19T12:37:41.542Z,43.35
2018-10-19T12:40:10.442Z,44.80
2018-10-19T12:42:38.834Z,44.67
2018-10-19T12:46:17.330Z,41.53
2018-10-19T12:48:45.415Z,42.67
2018-10-19T12:51:13.544Z,42.70
2018-10-19T12:53:41.553Z,42.00
2018-10-19T12:56:09.614Z,42.30
2018-10-19T12:58:37.678Z,42.25
2018-10-19T13:01:06.115Z,42.65
2018-10-19T13:03:34.280Z,41.95
2018-10-19T13:06:02.275Z,43.38
2018-10-19T13:08:30.343Z,43.30
2018-10-19T13:10:58.418Z,42.45
2018-10-19T13:13:26.486Z,44.30
2018-10-19T13:15:54.615Z,44.03
2018-10-19T13:18:22.681Z,43.37
2018-10-19T13:20:50.747Z,41.75
2018-10-19T13:23:18.815Z,42.43
2018-10-19T13:25:46.883Z,43.45
2018-10-19T13:28:15.374Z,42.48
2018-10-19T13:30:43.494Z,40.12
2018-10-19T13:33:12.096Z,40.10
2018-10-19T13:35:40.358Z,42.25
2018-10-19T13:38:08.452Z,41.50
2018-10-19T13:40:36.515Z,42.53
2018-10-19T13:43:04.587Z,42.55
2018-10-19T13:45:32.842Z,44.00
2018-10-19T13:48:00.875Z,44.07
2018-10-19T13:50:28.947Z,43.57
2018-10-19T13:52:57.063Z,43.70
2018-10-19T13:55:25.607Z,44.15
2018-10-19T13:57:54.083Z,43.90
2018-10-19T14:00:22.158Z,40.77
2018-10-19T14:02:50.222Z,41.83
2018-10-19T14:05:18.534Z,43.73
2018-10-19T14:07:46.786Z,41.97
2018-10-19T14:10:14.850Z,41.73
2018-10-19T14:12:42.915Z,42.67
2018-10-19T14:15:11.778Z,43.17
2018-10-19T14:17:40.810Z,42.30
2018-10-19T14:20:10.922Z,41.77
2018-10-19T14:22:39.091Z,42.98
2018-10-19T14:25:08.524Z,42.05
2018-10-19T14:27:37.814Z,40.12
2018-10-19T14:30:07.763Z,42.27
2018-10-19T14:32:35.827Z,41.58
2018-10-19T14:35:04.037Z,42.17
2018-10-19T14:37:32.088Z,42.13
2018-10-19T14:40:00.150Z,42.38
2018-10-19T14:42:28.226Z,42.93
2018-10-19T14:44:56.330Z,39.20
2018-10-19T14:47:24.395Z,42.23
2018-10-19T14:49:52.502Z,41.28
2018-10-19T14:52:20.585Z,39.30
2018-10-19T14:54:48.642Z,38.83
2018-10-19T14:57:16.727Z,41.48
2018-10-19T14:59:44.815Z,39.98
2018-10-19T15:02:12.898Z,40.78
2018-10-19T15:04:40.971Z,40.10
2018-10-19T15:07:09.050Z,41.90
2018-10-19T15:09:37.214Z,40.58
2018-10-19T15:12:05.867Z,42.15
2018-10-19T15:14:33.871Z,40.40
2018-10-19T15:17:01.938Z,40.43
2018-10-19T15:19:30.007Z,38.77
2018-10-19T15:21:58.076Z,37.53
2018-10-19T15:24:26.167Z,39.97
2018-10-19T15:26:54.277Z,40.77
2018-10-19T15:29:22.346Z,40.33
2018-10-19T15:31:50.404Z,41.87
2018-10-19T15:34:18.471Z,40.07
2018-10-19T15:36:46.538Z,40.57
2018-10-19T15:39:14.676Z,39.43
2018-10-19T15:41:42.671Z,40.50
2018-10-19T15:44:10.998Z,41.27
2018-10-19T15:46:39.157Z,40.33
2018-10-19T15:49:07.138Z,40.27
2018-10-19T15:51:35.202Z,41.90
2018-10-19T15:54:03.535Z,41.50
2018-10-19T15:56:32.799Z,43.20
2018-10-19T15:59:00.891Z,41.63
2018-10-19T16:01:28.958Z,40.07
2018-10-19T16:03:57.035Z,42.13
2018-10-19T16:06:25.102Z,42.17
2018-10-19T16:08:53.175Z,42.70
2018-10-19T16:11:21.239Z,42.63
2018-10-19T16:13:49.298Z,42.40
2018-10-19T16:16:17.379Z,42.37
2018-10-19T16:18:45.447Z,42.73
2018-10-19T16:21:13.568Z,44.00
2018-10-19T16:23:41.587Z,41.97
2018-10-19T16:26:09.658Z,43.83
2018-10-19T16:28:37.736Z,42.97
2018-10-19T16:31:05.820Z,43.90
2018-10-19T16:33:33.884Z,44.70
2018-10-19T16:36:02.259Z,46.77
2018-10-19T16:38:30.282Z,43.23
2018-10-19T16:40:58.359Z,44.43
2018-10-19T16:43:26.429Z,45.43
2018-10-19T16:45:54.495Z,46.53
2018-10-19T16:48:22.576Z,47.20
2018-10-19T16:50:50.647Z,47.03
2018-10-19T16:53:18.729Z,48.97
2018-10-19T16:55:46.813Z,47.67
2018-10-19T16:58:14.927Z,50.47
2018-10-19T17:00:42.978Z,48.67
2018-10-19T17:03:11.188Z,47.70
2018-10-19T17:05:39.187Z,46.27
2018-10-19T17:08:07.360Z,48.03
2018-10-19T17:10:35.480Z,45.57
2018-10-19T17:13:03.650Z,45.43
2018-10-19T17:15:31.775Z,46.60
2018-10-19T17:18:00.007Z,45.13
2018-10-19T17:20:28.114Z,46.40
2018-10-19T17:22:56.813Z,46.93
2018-10-19T17:25:24.883Z,46.17
2018-10-19T17:27:52.968Z,49.27
2018-10-19T17:30:21.074Z,46.63
2018-10-19T17:32:49.213Z,45.73
2018-10-19T17:35:17.433Z,45.67
2018-10-19T17:37:45.543Z,46.00
2018-10-19T17:40:13.762Z,45.60
2018-10-19T17:42:41.921Z,46.53
2018-10-19T17:45:10.962Z,44.60
2018-10-19T17:47:39.233Z,45.20
2018-10-19T17:50:07.275Z,43.53
2018-10-19T17:52:35.427Z,44.33
2018-10-19T17:55:03.578Z,45.70
2018-10-19T17:57:31.634Z,45.30
2018-10-19T17:59:59.751Z,44.90
2018-10-19T18:02:27.794Z,44.20
2018-10-19T18:04:56.019Z,45.70
2018-10-19T18:07:24.071Z,45.00
2018-10-19T18:09:52.171Z,45.60
2018-10-19T18:12:20.325Z,46.23
2018-10-19T18:14:48.402Z,45.33
2018-10-19T18:17:16.454Z,45.50
2018-10-19T18:19:44.631Z,45.53
2018-10-19T18:22:12.978Z,46.23
2018-10-19T18:24:40.855Z,44.20
2018-10-19T18:27:08.973Z,48.57
2018-10-19T18:29:36.976Z,46.33
2018-10-19T18:32:05.192Z,46.73
2018-10-19T18:34:33.284Z,47.20
2018-10-19T18:37:01.291Z,47.53
2018-10-19T18:39:29.347Z,48.60
2018-10-19T18:41:57.435Z,47.83
2018-10-19T18:44:25.509Z,48.40
2018-10-19T18:46:53.572Z,49.20
2018-10-19T18:49:21.663Z,49.07
2018-10-19T18:51:49.760Z,51.90
2018-10-19T18:54:17.767Z,49.03
2018-10-19T18:56:45.838Z,50.53
2018-10-19T18:59:14.057Z,52.27
2018-10-19T19:01:42.051Z,51.07
2018-10-19T19:04:10.222Z,50.27
2018-10-19T19:06:38.286Z,48.43
2018-10-19T19:09:08.723Z,48.73
2018-10-19T19:11:36.786Z,50.23
2018-10-19T19:14:05.039Z,50.00
2018-10-19T19:16:33.122Z,49.43
2018-10-19T19:19:01.199Z,49.93
2018-10-19T19:21:29.350Z,47.70
2018-10-19T19:24:02.664Z,49.27
2018-10-19T19:26:30.744Z,48.83
2018-10-19T19:28:59.059Z,49.37
2018-10-19T19:31:27.095Z,47.67
2018-10-19T19:34:00.633Z,48.03
2018-10-19T19:36:28.695Z,48.57
2018-10-19T19:38:56.798Z,50.20
2018-10-19T19:41:30.195Z,52.40
2018-10-19T19:43:58.336Z,51.83
2018-10-19T19:46:26.490Z,52.23
2018-10-19T19:49:00.000Z,52.13
2018-10-19T19:51:27.982Z,54.07
2018-10-19T19:53:56.046Z,53.53
2018-10-19T19:56:24.207Z,54.20
2018-10-19T19:58:52.271Z,53.50
2018-10-19T20:01:20.351Z,54.77
2018-10-19T20:03:48.426Z,54.20
2018-10-19T20:06:16.564Z,56.73
2018-10-19T20:08:44.591Z,58.33
2018-10-19T20:11:12.691Z,58.97
2018-10-19T20:13:40.783Z,65.30
2018-10-19T20:16:08.846Z,74.30
2018-10-19T20:18:36.925Z,72.97
2018-10-19T20:21:05.479Z,73.93
2018-10-19T20:23:33.566Z,73.40
2018-10-19T20:26:01.764Z,70.00
2018-10-19T20:28:29.800Z,70.47
2018-10-19T20:30:57.884Z,71.20
2018-10-19T20:33:26.030Z,71.57
2018-10-19T20:35:54.436Z,69.33
2018-10-19T20:38:22.543Z,68.53
2018-10-19T20:40:50.632Z,70.80
2018-10-19T20:43:18.693Z,66.70
2018-10-19T20:45:46.759Z,65.63
2018-10-19T20:48:14.851Z,66.70
2018-10-19T20:50:42.931Z,66.53
2018-10-19T20:53:11.034Z,65.77
2018-10-19T20:55:39.113Z,64.33
2018-10-19T20:58:07.162Z,66.93
2018-10-19T21:00:35.283Z,65.57
2018-10-19T21:03:03.324Z,67.10
2018-10-19T21:05:31.415Z,62.27
2018-10-19T21:07:59.502Z,60.63
2018-10-19T21:10:27.578Z,59.17
2018-10-19T21:12:55.643Z,62.67
2018-10-19T21:15:23.729Z,64.47
2018-10-19T21:17:51.795Z,63.10
2018-10-19T21:20:19.886Z,63.73
2018-10-19T21:22:47.950Z,66.10
2018-10-19T21:25:16.030Z,65.87
2018-10-19T21:27:44.102Z,66.43
2018-10-19T21:30:13.040Z,65.47
2018-10-19T21:32:41.341Z,68.80
2018-10-19T21:35:09.484Z,67.47
2018-10-19T21:37:37.654Z,65.03
2018-10-19T21:40:05.720Z,67.77
2018-10-19T21:42:33.903Z,64.47
2018-10-19T21:45:02.048Z,70.83
2018-10-19T21:47:30.123Z,72.43
2018-10-19T21:49:58.381Z,72.73
2018-10-19T21:52:26.411Z,74.67
2018-10-19T21:54:54.494Z,73.67
2018-10-19T21:57:22.579Z,79.00
2018-10-19T21:59:50.638Z,76.63
2018-10-19T22:02:18.747Z,70.70
2018-10-19T22:04:46.819Z,70.90
2018-10-19T22:07:14.894Z,71.97
2018-10-19T22:09:42.975Z,69.17
2018-10-19T22:12:11.044Z,72.03
2018-10-19T22:14:39.105Z,70.37
2018-10-19T22:17:07.194Z,71.80
2018-10-19T22:19:35.262Z,73.40
2018-10-19T22:22:03.318Z,75.33
2018-10-19T22:24:31.408Z,75.37
2018-10-19T22:26:59.483Z,71.83
2018-10-19T22:29:27.555Z,71.07
2018-10-19T22:31:55.632Z,70.20
2018-10-19T22:34:23.698Z,73.63
2018-10-19T22:36:51.775Z,69.23
2018-10-19T22:39:19.834Z,70.97
2018-10-19T22:41:47.914Z,70.43
2018-10-19T22:44:15.987Z,68.83
2018-10-19T22:46:44.059Z,74.50
2018-10-19T22:49:12.182Z,71.57
2018-10-19T22:51:40.226Z,71.97
2018-10-19T22:54:08.298Z,69.53
2018-10-19T22:56:36.467Z,70.83
2018-10-19T22:59:04.493Z,69.43
2018-10-19T23:01:32.543Z,71.77
2018-10-19T23:04:00.618Z,72.17
2018-10-19T23:06:28.712Z,69.67
2018-10-19T23:08:56.782Z,70.87
2018-10-19T23:11:24.855Z,67.80
2018-10-19T23:13:52.926Z,66.20
2018-10-19T23:16:21.002Z,67.53
2018-10-19T23:18:49.080Z,75.60
2018-10-19T23:21:17.147Z,82.73
2018-10-19T23:23:45.222Z,85.33
2018-10-19T23:26:13.311Z,84.60
2018-10-19T23:28:41.391Z,80.87
2018-10-19T23:31:09.617Z,78.40
2018-10-19T23:33:37.634Z,76.87
2018-10-19T23:36:05.906Z,70.00
2018-10-19T23:38:33.979Z,75.60
2018-10-19T23:41:02.065Z,75.53
2018-10-19T23:43:30.147Z,79.70
2018-10-19T23:45:58.215Z,72.03
2018-10-19T23:48:26.299Z,73.27
2018-10-19T23:50:54.387Z,76.57
2018-10-19T23:53:22.451Z,75.83
2018-10-19T23:55:50.531Z,70.70
2018-10-19T23:58:18.595Z,72.77
